Time;durP1;ratioP1;P1;durP2;ratioP2;P2;SDS_P1;SDS_P2;PMS_P1;PMS_P2;Temp;Humidity;BMP_temperature;BMP_pressure;BME280_temperature;BME280_humidity;BME280_pressure;Samples;Min_cycle;Max_cycle;Signal;HPM_P1;HPM_P2
2024/03/05 00:01:48;;;;;;;20.67;11.85;;;;;;;-0.32;100.00;101367.97;5071569;28;20390;-81
2024/03/05 00:04:14;;;;;;;23.40;13.07;;;;;;;-0.33;100.00;101369.72;5071604;28;20484;-80
2024/03/05 00:06:39;;;;;;;27.95;15.25;;;;;;;-0.37;100.00;101363.78;5070748;28;20549;-80
2024/03/05 00:09:05;;;;;;;32.65;15.73;;;;;;;-0.35;100.00;101371.56;5071087;28;20028;-81
2024/03/05 00:11:30;;;;;;;31.20;16.83;;;;;;;-0.39;100.00;101359.50;5071729;28;20059;-80
2024/03/05 00:13:56;;;;;;;32.65;17.42;;;;;;;-0.40;100.00;101371.72;5092326;28;20034;-80
2024/03/05 00:16:21;;;;;;;31.02;17.15;;;;;;;-0.43;100.00;101360.53;5093648;28;20115;-81
2024/03/05 00:18:47;;;;;;;29.17;17.00;;;;;;;-0.44;100.00;101364.91;5073020;28;20020;-80
2024/03/05 00:21:12;;;;;;;34.22;17.50;;;;;;;-0.44;100.00;101367.50;5073050;28;20093;-81
2024/03/05 00:23:40;;;;;;;29.80;16.90;;;;;;;-0.46;100.00;101364.09;5093899;28;20069;-82
2024/03/05 00:26:06;;;;;;;30.48;15.77;;;;;;;-0.47;100.00;101366.78;5070591;28;20532;-80
2024/03/05 00:28:32;;;;;;;25.85;14.55;;;;;;;-0.49;100.00;101366.84;5093492;28;20115;-80
2024/03/05 00:30:58;;;;;;;21.95;12.85;;;;;;;-0.49;100.00;101369.44;5093230;28;20070;-80
2024/03/05 00:33:24;;;;;;;19.65;12.77;;;;;;;-0.49;100.00;101366.84;5089408;28;20043;-80
2024/03/05 00:35:50;;;;;;;19.25;11.57;;;;;;;-0.51;100.00;101373.84;5074184;28;20024;-80
2024/03/05 00:38:16;;;;;;;17.15;10.93;;;;;;;-0.52;100.00;101371.31;5093337;28;20037;-80
2024/03/05 00:40:41;;;;;;;17.88;10.85;;;;;;;-0.55;100.00;101365.28;5093283;28;20210;-80
2024/03/05 00:43:06;;;;;;;15.32;10.32;;;;;;;-0.54;100.00;101363.50;5091022;28;20024;-80
2024/03/05 00:45:32;;;;;;;14.35;9.68;;;;;;;-0.56;100.00;101368.78;5093093;28;20036;-80
2024/03/05 00:47:57;;;;;;;13.95;9.23;;;;;;;-0.56;100.00;101362.72;5092692;28;20024;-81
2024/03/05 00:50:23;;;;;;;14.15;8.90;;;;;;;-0.57;100.00;101363.63;5058171;28;20039;-80
2024/03/05 00:52:49;;;;;;;11.52;8.40;;;;;;;-0.57;100.00;101367.13;5054237;28;20055;-80
2024/03/05 00:55:15;;;;;;;13.50;8.30;;;;;;;-0.57;100.00;101361.00;5093158;28;20122;-81
2024/03/05 00:57:41;;;;;;;12.82;8.27;;;;;;;-0.58;100.00;101362.78;5093265;28;20137;-81
2024/03/05 01:00:07;;;;;;;12.27;7.90;;;;;;;-0.59;100.00;101366.28;5092645;28;20020;-80
2024/03/05 01:02:32;;;;;;;10.90;7.70;;;;;;;-0.60;100.00;101369.84;5057273;28;20031;-80
2024/03/05 01:04:58;;;;;;;10.55;7.53;;;;;;;-0.63;100.00;101356.84;5090451;28;20124;-80
2024/03/05 01:07:23;;;;;;;10.55;8.27;;;;;;;-0.65;100.00;101357.84;5046819;28;20036;-80
2024/03/05 01:09:49;;;;;;;12.18;8.73;;;;;;;-0.68;100.00;101355.34;5085493;28;20115;-80
2024/03/05 01:12:15;;;;;;;13.93;7.78;;;;;;;-0.69;100.00;101358.84;5090210;28;20082;-80
2024/03/05 01:14:40;;;;;;;10.85;7.68;;;;;;;-0.72;100.00;101355.44;5057852;28;20051;-80
2024/03/05 01:17:08;;;;;;;11.55;7.25;;;;;;;-0.73;100.00;101355.50;5092236;28;20031;-80
2024/03/05 01:19:35;;;;;;;11.63;7.75;;;;;;;-0.75;100.00;101357.28;5088581;28;20078;-80
2024/03/05 01:22:01;;;;;;;13.90;8.02;;;;;;;-0.75;100.00;101359.91;5092074;28;20032;-80
2024/03/05 01:24:27;;;;;;;14.20;7.97;;;;;;;-0.77;100.00;101354.72;5070693;28;20039;-81
2024/03/05 01:26:52;;;;;;;11.27;7.75;;;;;;;-0.78;100.00;101344.34;5071904;28;20023;-80
2024/03/05 01:29:18;;;;;;;10.02;7.43;;;;;;;-0.79;100.00;101348.72;5071647;28;20081;-81
2024/03/05 01:31:46;;;;;;;9.00;6.80;;;;;;;-0.81;100.00;101344.44;5092221;28;20061;-80
2024/03/05 01:34:12;;;;;;;10.60;7.53;;;;;;;-0.83;100.00;101339.28;5073345;28;20024;-80
2024/03/05 01:36:37;;;;;;;10.98;7.88;;;;;;;-0.84;100.00;101340.16;5092409;28;20445;-80
2024/03/05 01:39:04;;;;;;;12.55;8.52;;;;;;;-0.84;100.00;101339.31;5082584;28;20149;-79
2024/03/05 01:41:30;;;;;;;12.18;8.20;;;;;;;-0.83;100.00;101334.03;5089647;28;20423;-80
2024/03/05 01:43:56;;;;;;;11.43;7.72;;;;;;;-0.83;100.00;101335.81;5073852;28;20119;-80
2024/03/05 01:46:23;;;;;;;10.70;7.53;;;;;;;-0.83;100.00;101336.66;5090027;28;20024;-80
2024/03/05 01:48:50;;;;;;;14.50;8.32;;;;;;;-0.81;100.00;101334.00;5091898;28;20059;-80
2024/03/05 01:51:17;;;;;;;10.20;7.65;;;;;;;-0.83;100.00;101335.81;5073717;28;20034;-80
2024/03/05 01:53:45;;;;;;;10.90;7.93;;;;;;;-0.84;100.00;101332.31;5091873;28;20032;-81
2024/03/05 01:56:12;;;;;;;12.23;7.70;;;;;;;-0.84;100.00;101336.72;5071136;28;20032;-80
2024/03/05 01:58:40;;;;;;;12.60;8.02;;;;;;;-0.83;100.00;101343.66;5073556;28;20032;-81
2024/03/05 02:01:06;;;;;;;11.23;7.72;;;;;;;-0.84;100.00;101329.72;5090537;28;20099;-81
2024/03/05 02:03:36;;;;;;;13.27;8.05;;;;;;;-0.84;100.00;101337.56;5073566;28;20124;-80
2024/03/05 02:06:03;;;;;;;12.20;8.30;;;;;;;-0.86;100.00;101326.31;5090904;28;20024;-80
2024/03/05 02:08:28;;;;;;;13.13;8.32;;;;;;;-0.85;100.00;101329.78;5073235;28;20050;-80
2024/03/05 02:10:55;;;;;;;10.68;7.82;;;;;;;-0.86;100.00;101326.31;5091619;28;20115;-80
2024/03/05 02:13:21;;;;;;;15.05;9.00;;;;;;;-0.87;100.00;101326.38;5086475;28;20859;-80
2024/03/05 02:15:47;;;;;;;11.98;8.23;;;;;;;-0.89;100.00;101329.03;5056388;28;20463;-80
2024/03/05 02:18:13;;;;;;;14.18;8.90;;;;;;;-0.90;100.00;101333.41;5090988;28;20031;-81
2024/03/05 02:20:39;;;;;;;13.60;9.20;;;;;;;-0.90;100.00;101327.31;5091497;28;20046;-81
2024/03/05 02:23:05;;;;;;;20.05;9.23;;;;;;;-0.92;100.00;101329.16;5089272;28;20034;-81
2024/03/05 02:25:31;;;;;;;18.70;9.65;;;;;;;-0.93;100.00;101330.88;5091254;28;20020;-81
2024/03/05 02:27:57;;;;;;;14.88;8.73;;;;;;;-0.93;100.00;101337.88;5073011;28;20387;-81
2024/03/05 02:30:22;;;;;;;11.80;8.82;;;;;;;-0.92;100.00;101335.22;5072677;28;20308;-80
2024/03/05 02:32:48;;;;;;;13.35;7.80;;;;;;;-0.91;100.00;101336.06;5090863;28;20028;-80
2024/03/05 02:35:13;;;;;;;14.27;9.05;;;;;;;-0.93;100.00;101336.09;5090893;28;20028;-80
2024/03/05 02:37:40;;;;;;;16.52;8.77;;;;;;;-0.93;100.00;101343.94;5091131;28;20452;-82
2024/03/05 02:40:10;;;;;;;13.15;9.48;;;;;;;-0.91;100.00;101346.50;5088838;28;20088;-81
2024/03/05 02:42:36;;;;;;;14.75;9.75;;;;;;;-0.93;100.00;101336.09;5091323;28;20557;-81
2024/03/05 02:45:05;;;;;;;16.17;9.98;;;;;;;-0.93;100.00;101340.50;5091046;28;20024;-81
2024/03/05 02:47:35;;;;;;;15.75;9.23;;;;;;;-0.97;100.00;101334.53;5091257;28;20047;-81
2024/03/05 02:50:00;;;;;;;15.57;9.90;;;;;;;-0.97;100.00;101329.31;5087065;28;20061;-82
2024/03/05 02:52:28;;;;;;;15.88;10.52;;;;;;;-0.97;100.00;101331.03;5090820;28;20039;-81
2024/03/05 02:54:53;;;;;;;17.23;10.00;;;;;;;-0.96;100.00;101331.00;5091305;28;20039;-81
2024/03/05 02:57:19;;;;;;;18.25;9.50;;;;;;;-0.96;100.00;101324.94;5090696;28;20452;-81
2024/03/05 02:59:44;;;;;;;18.00;10.40;;;;;;;-0.95;100.00;101327.47;5090747;28;20035;-81
2024/03/05 03:02:10;;;;;;;16.27;9.40;;;;;;;-0.95;100.00;101332.72;5088162;28;20386;-81
2024/03/05 03:04:35;;;;;;;16.50;10.15;;;;;;;-0.93;100.00;101330.03;5067707;28;20043;-81
2024/03/05 03:07:00;;;;;;;17.00;10.13;;;;;;;-0.91;100.00;101333.44;5090384;28;20048;-81
2024/03/05 03:09:26;;;;;;;14.95;9.80;;;;;;;-0.90;100.00;101338.66;5088317;28;20054;-81
2024/03/05 03:11:55;;;;;;;16.42;10.55;;;;;;;-0.91;100.00;101338.66;5072519;28;20448;-82
2024/03/05 03:14:21;;;;;;;17.73;10.13;;;;;;;-0.90;100.00;101332.53;5071908;28;20028;-82
2024/03/05 03:16:49;;;;;;;17.92;10.20;;;;;;;-0.89;100.00;101339.50;5086685;28;20047;-82
2024/03/05 03:19:15;;;;;;;15.88;10.02;;;;;;;-0.86;100.00;101351.59;5090191;28;20115;-81
2024/03/05 03:21:41;;;;;;;20.30;11.27;;;;;;;-0.82;100.00;101346.22;5072117;28;20030;-82
2024/03/05 03:24:10;;;;;;;20.58;10.57;;;;;;;-0.75;100.00;101342.47;5072159;28;20032;-82
2024/03/05 03:26:36;;;;;;;18.10;10.70;;;;;;;-0.64;100.00;101343.84;5089890;28;20046;-81
2024/03/05 03:29:02;;;;;;;17.27;10.60;;;;;;;-0.55;100.00;101344.38;5090146;28;20486;-81
2024/03/05 03:31:27;;;;;;;19.10;11.68;;;;;;;-0.46;100.00;101347.53;5055090;28;20032;-81
2024/03/05 03:33:53;;;;;;;23.15;11.50;;;;;;;-0.40;100.00;101348.19;5090270;28;20439;-81
2024/03/05 03:36:23;;;;;;;17.35;10.50;;;;;;;-0.36;100.00;101341.94;5069325;28;20107;-80
2024/03/05 03:38:49;;;;;;;16.65;9.98;;;;;;;-0.29;100.00;101344.34;5090340;28;20051;-80
2024/03/05 03:41:15;;;;;;;18.25;11.10;;;;;;;-0.22;100.00;101348.44;5071508;28;20127;-81
2024/03/05 03:43:40;;;;;;;22.45;11.80;;;;;;;-0.10;100.00;101344.50;5087958;28;20428;-81
2024/03/05 03:46:05;;;;;;;26.05;13.50;;;;;;;0.00;100.00;101338.00;5090081;28;20092;-81
2024/03/05 03:48:31;;;;;;;27.48;12.63;;;;;;;0.09;100.00;101337.66;5073669;28;20452;-81
2024/03/05 03:50:56;;;;;;;22.10;12.02;;;;;;;0.16;100.00;101338.25;5094509;28;20032;-81
2024/03/05 03:53:22;;;;;;;20.30;12.00;;;;;;;0.23;100.00;101338.88;5091556;28;20020;-81
2024/03/05 03:55:48;;;;;;;22.15;11.85;;;;;;;0.29;100.00;101338.63;5094461;28;20043;-81
2024/03/05 03:58:15;;;;;;;24.42;13.73;;;;;;;0.35;100.00;101339.22;5094149;28;20024;-82
2024/03/05 04:00:40;;;;;;;22.27;12.60;;;;;;;0.42;100.00;101339.84;5076262;28;20149;-81
2024/03/05 04:03:06;;;;;;;20.88;12.55;;;;;;;0.48;100.00;101342.22;5089938;28;20077;-81
2024/03/05 04:05:32;;;;;;;24.67;14.10;;;;;;;0.53;100.00;101344.66;5093723;28;20043;-81
2024/03/05 04:07:57;;;;;;;25.48;14.95;;;;;;;0.56;100.00;101338.44;5057277;28;20437;-80
2024/03/05 04:10:22;;;;;;;24.45;13.75;;;;;;;0.60;100.00;101342.63;5075311;28;20429;-81
2024/03/05 04:12:49;;;;;;;29.48;14.07;;;;;;;0.64;100.00;101349.44;5093891;28;20471;-81
2024/03/05 04:15:18;;;;;;;28.83;15.10;;;;;;;0.71;100.00;101340.41;5094111;28;20111;-81
2024/03/05 04:17:45;;;;;;;28.33;14.50;;;;;;;0.80;100.00;101355.75;5076147;28;20028;-80
2024/03/05 04:20:14;;;;;;;34.45;15.85;;;;;;;0.91;100.00;101357.09;5075613;28;20100;-81
2024/03/05 04:22:40;;;;;;;31.75;16.50;;;;;;;0.98;100.00;101350.66;5091118;28;20056;-81
2024/03/05 04:25:06;;;;;;;31.10;15.52;;;;;;;1.00;100.00;101354.06;5071280;28;20166;-82
2024/03/05 04:27:31;;;;;;;36.25;17.90;;;;;;;1.02;100.00;101360.13;5093183;28;20340;-81
2024/03/05 04:29:57;;;;;;;33.10;17.55;;;;;;;1.06;100.00;101359.06;5074983;28;20028;-81
2024/03/05 04:32:26;;;;;;;36.83;16.50;;;;;;;1.09;100.00;101361.56;5074759;28;20028;-81
2024/03/05 04:35:00;;;;;;;39.67;16.75;;;;;;;1.16;100.00;101367.38;5075437;28;20114;-81
2024/03/05 04:37:30;;;;;;;35.53;16.73;;;;;;;1.20;100.00;101366.34;5091054;28;20456;-82
2024/03/05 04:39:56;;;;;;;34.95;17.02;;;;;;;1.22;100.00;101364.50;5091377;28;20468;-82
2024/03/05 04:42:24;;;;;;;38.58;17.83;;;;;;;1.21;100.00;101368.06;5067263;28;20452;-83
2024/03/05 04:44:51;;;;;;;36.65;16.60;;;;;;;1.22;100.00;101367.13;5093294;28;20058;-83
2024/03/05 04:47:17;;;;;;;41.55;18.85;;;;;;;1.26;100.00;101375.72;5075200;28;20464;-81
2024/03/05 04:49:42;;;;;;;38.90;18.50;;;;;;;1.28;100.00;101369.47;5092718;28;20030;-81
2024/03/05 04:52:09;;;;;;;45.15;19.65;;;;;;;1.29;100.00;101368.56;5092754;28;20031;-81
2024/03/05 04:54:35;;;;;;;46.60;20.45;;;;;;;1.32;100.00;101370.22;5092298;28;20111;-81
2024/03/05 04:57:01;;;;;;;51.60;21.50;;;;;;;1.36;100.00;101377.88;5093087;28;20110;-81
2024/03/05 04:59:27;;;;;;;53.50;21.00;;;;;;;1.40;100.00;101376.81;5092351;28;20044;-82
2024/03/05 05:01:52;;;;;;;47.45;21.42;;;;;;;1.45;100.00;101375.75;5074415;28;20032;-83
2024/03/05 05:04:18;;;;;;;50.72;19.83;;;;;;;1.46;100.00;101369.59;5074133;28;20365;-82
2024/03/05 05:06:43;;;;;;;48.97;20.48;;;;;;;1.49;100.00;101377.31;5091979;28;20636;-83
2024/03/05 05:09:08;;;;;;;48.42;21.27;;;;;;;1.51;100.00;101376.34;5073466;28;20393;-82
2024/03/05 05:11:34;;;;;;;51.15;21.35;;;;;;;1.53;100.00;101374.50;5073331;28;20016;-82
2024/03/05 05:13:59;;;;;;;51.63;20.60;;;;;;;1.56;100.00;101366.50;5056939;28;20036;-82
2024/03/05 05:16:26;;;;;;;57.75;22.42;;;;;;;1.59;100.00;101368.13;5092984;28;20042;-82
2024/03/05 05:18:52;;;;;;;51.58;20.52;;;;;;;1.62;100.00;101373.25;5093329;28;20039;-83
2024/03/05 05:21:17;;;;;;;54.83;22.73;;;;;;;1.66;100.00;101373.97;5092328;28;20060;-83
2024/03/05 05:23:43;;;;;;;53.90;21.25;;;;;;;1.69;100.00;101372.06;5092034;28;20052;-82
2024/03/05 05:26:09;;;;;;;62.85;22.67;;;;;;;1.72;100.00;101374.53;5074276;28;20050;-81
2024/03/05 05:28:34;;;;;;;58.75;22.02;;;;;;;1.74;100.00;101377.94;5091905;28;20104;-81
2024/03/05 05:31:00;;;;;;;56.92;22.38;;;;;;;1.77;100.00;101371.69;5092482;28;20036;-82
2024/03/05 05:33:25;;;;;;;54.95;21.02;;;;;;;1.77;100.00;101372.53;5085848;28;20459;-82
2024/03/05 05:35:50;;;;;;;62.05;22.00;;;;;;;1.79;100.00;101374.25;5092052;28;20089;-82
2024/03/05 05:38:16;;;;;;;61.75;21.35;;;;;;;1.80;100.00;101365.47;5057644;28;20028;-81
2024/03/05 05:40:43;;;;;;;54.05;21.70;;;;;;;1.83;100.00;101365.34;5091110;28;20048;-82
2024/03/05 05:43:11;;;;;;;54.08;22.35;;;;;;;1.88;100.00;101377.34;5092217;28;20036;-81
2024/03/05 05:45:37;;;;;;;61.75;21.83;;;;;;;1.91;100.00;101374.56;5069759;28;20477;-81
2024/03/05 05:48:03;;;;;;;65.25;23.60;;;;;;;1.94;100.00;101369.16;5073745;28;20104;-82
2024/03/05 05:50:28;;;;;;;61.10;22.90;;;;;;;2.00;100.00;101369.78;5089100;28;20502;-81
2024/03/05 05:52:55;;;;;;;58.10;22.13;;;;;;;2.02;100.00;101379.31;5073409;28;20028;-82
2024/03/05 05:55:23;;;;;;;64.28;22.98;;;;;;;2.04;100.00;101376.63;5074041;28;20079;-80
2024/03/05 05:57:50;;;;;;;60.63;22.85;;;;;;;2.05;100.00;101378.34;5091659;28;20050;-82
2024/03/05 06:00:31;;;;;;;59.78;22.42;;;;;;;2.09;100.00;101391.25;5092005;28;20093;-81
2024/03/05 06:02:58;;;;;;;55.28;22.73;;;;;;;2.14;100.00;101384.94;5092304;28;20028;-80
2024/03/05 06:05:27;;;;;;;61.38;24.10;;;;;;;2.17;100.00;101396.13;5092016;28;20024;-80
2024/03/05 06:07:53;;;;;;;73.75;24.42;;;;;;;2.21;100.00;101389.81;5090693;28;20078;-79
2024/03/05 06:10:19;;;;;;;63.15;23.75;;;;;;;2.26;100.00;101393.06;5057027;28;20040;-80
2024/03/05 06:12:45;;;;;;;73.30;25.00;;;;;;;2.31;100.00;101398.09;5091398;28;20028;-82
2024/03/05 06:15:14;;;;;;;71.13;24.98;;;;;;;2.35;100.00;101401.47;5091758;28;20028;-80
2024/03/05 06:17:40;;;;;;;74.22;26.10;;;;;;;2.39;100.00;101406.50;5091345;28;20024;-80
2024/03/05 06:20:10;;;;;;;70.53;25.23;;;;;;;2.43;100.00;101410.69;5092118;28;20020;-80
2024/03/05 06:22:43;;;;;;;69.40;24.20;;;;;;;2.46;100.00;101404.41;5085783;28;20043;-83
2024/03/05 06:25:11;;;;;;;75.55;26.25;;;;;;;2.50;100.00;101407.75;5091318;28;20060;-81
2024/03/05 06:27:37;;;;;;;74.50;25.52;;;;;;;2.54;100.00;101407.53;5090850;28;20024;-80
2024/03/05 06:30:21;;;;;;;71.13;26.13;;;;;;;2.57;100.00;101401.28;5092054;28;20410;-83
2024/03/05 06:32:47;;;;;;;72.75;25.23;;;;;;;2.61;100.00;101411.56;5091700;28;20081;-80
2024/03/05 06:35:14;;;;;;;84.03;26.85;;;;;;;2.66;100.00;101416.59;5091722;28;20075;-86
2024/03/05 06:37:41;;;;;;;86.28;27.15;;;;;;;2.70;100.00;101412.03;5091113;28;20059;-83
2024/03/05 06:40:09;;;;;;;76.53;25.98;;;;;;;2.74;100.00;101410.97;5091185;28;20032;-86
2024/03/05 06:42:41;;;;;;;87.50;27.10;;;;;;;2.78;100.00;101420.41;5047388;28;20024;-85
2024/03/05 06:45:08;;;;;;;83.40;27.88;;;;;;;2.81;100.00;101413.22;5084423;28;20028;-82
2024/03/05 06:47:44;;;;;;;90.93;26.65;;;;;;;2.82;100.00;101412.31;5070628;28;20024;-82
2024/03/05 06:50:19;;;;;;;84.50;26.95;;;;;;;2.86;100.00;101406.91;5088569;28;20024;-82
2024/03/05 06:58:14;;;;;;;75.05;25.45;;;;;;;2.94;100.00;101429.25;5088922;28;20055;-84
2024/03/05 07:00:39;;;;;;;89.97;27.90;;;;;;;2.97;100.00;101429.09;5087508;28;20024;-82
2024/03/05 07:03:06;;;;;;;78.50;27.33;;;;;;;3.00;100.00;101421.06;5088475;28;20028;-81
2024/03/05 07:05:32;;;;;;;83.93;27.55;;;;;;;3.03;100.00;101435.84;5064078;28;20054;-83
2024/03/05 07:07:59;;;;;;;83.60;27.50;;;;;;;3.06;100.00;101422.56;5065402;28;20051;-81
2024/03/05 07:10:24;;;;;;;84.50;27.35;;;;;;;3.09;100.00;101427.66;5060026;28;20469;-80
2024/03/05 07:12:51;;;;;;;84.22;28.40;;;;;;;3.12;100.00;101438.00;5063887;28;20491;-80
2024/03/05 07:15:17;;;;;;;81.30;27.00;;;;;;;3.17;100.00;101437.78;5066037;28;20032;-80
2024/03/05 07:17:43;;;;;;;77.90;27.95;;;;;;;3.18;100.00;101435.06;5067183;28;20524;-83
2024/03/05 07:20:18;;;;;;;90.57;29.00;;;;;;;3.23;100.00;101434.00;5067508;28;20032;-81
2024/03/05 07:22:47;;;;;;;82.55;27.83;;;;;;;3.24;100.00;101433.06;5066659;28;20036;-82
2024/03/05 07:25:14;;;;;;;83.97;27.80;;;;;;;3.28;100.00;101434.59;5067833;28;20055;-82
2024/03/05 07:27:42;;;;;;;80.70;29.30;;;;;;;3.29;100.00;101436.31;5067810;28;20453;-82
2024/03/05 07:30:11;;;;;;;71.30;26.95;;;;;;;3.31;100.00;101437.06;5067611;28;20422;-82
2024/03/05 07:32:37;;;;;;;83.78;27.58;;;;;;;3.32;100.00;101437.00;5066477;28;20550;-82
2024/03/05 07:35:05;;;;;;;82.32;27.05;;;;;;;3.34;100.00;101439.56;5065851;28;20421;-82
2024/03/05 07:37:30;;;;;;;89.65;28.77;;;;;;;3.36;100.00;101432.44;5067609;28;20040;-82
2024/03/05 07:39:55;;;;;;;85.57;29.08;;;;;;;3.39;100.00;101434.94;5067116;28;20114;-82
2024/03/05 07:42:21;;;;;;;90.43;27.83;;;;;;;3.42;100.00;101433.91;5067666;28;20541;-81
2024/03/05 07:44:46;;;;;;;92.47;28.20;;;;;;;3.44;100.00;101435.53;5066899;28;20094;-81
2024/03/05 07:47:12;;;;;;;84.97;27.98;;;;;;;3.47;100.00;101434.53;5067345;28;20075;-82
2024/03/05 07:49:37;;;;;;;88.47;29.73;;;;;;;3.51;100.00;101430.81;5066205;28;20139;-82
2024/03/05 07:52:03;;;;;;;93.93;31.15;;;;;;;3.54;100.00;101430.66;5065615;28;20084;-82
2024/03/05 07:54:31;;;;;;;99.97;31.05;;;;;;;3.59;100.00;101430.41;5065860;28;20040;-83
2024/03/05 07:56:56;;;;;;;89.88;29.95;;;;;;;3.63;100.00;101435.44;5066940;28;20124;-84
2024/03/05 07:59:21;;;;;;;84.25;29.88;;;;;;;3.67;100.00;101439.63;5067251;28;20107;-84
2024/03/05 08:01:47;;;;;;;82.82;27.65;;;;;;;3.73;100.00;101454.22;5049739;28;20036;-83
2024/03/05 08:04:12;;;;;;;87.10;30.50;;;;;;;3.78;100.00;101448.75;5067628;28;20036;-83
2024/03/05 08:06:37;;;;;;;90.30;30.98;;;;;;;3.83;100.00;101450.19;5066852;28;20461;-83
2024/03/05 08:09:06;;;;;;;95.35;31.75;;;;;;;3.87;100.00;101448.25;5068455;28;20088;-83
2024/03/05 08:11:33;;;;;;;94.30;31.02;;;;;;;3.91;100.00;101454.19;5087579;28;20039;-83
2024/03/05 08:14:07;;;;;;;93.85;31.15;;;;;;;3.97;100.00;101448.59;5087671;28;20028;-83
2024/03/05 08:16:33;;;;;;;91.22;31.75;;;;;;;4.00;100.00;101458.97;5070231;28;20487;-83
2024/03/05 08:18:59;;;;;;;100.28;32.45;;;;;;;4.01;100.00;101464.16;5087220;28;20035;-84
2024/03/05 08:21:25;;;;;;;91.15;30.20;;;;;;;4.03;100.00;101462.31;5069497;28;20059;-84
2024/03/05 08:23:53;;;;;;;97.75;31.75;;;;;;;4.06;100.00;101461.28;5087117;28;20482;-85
2024/03/05 08:26:19;;;;;;;93.00;31.48;;;;;;;4.07;100.00;101462.97;5069114;28;20601;-84
2024/03/05 08:28:44;;;;;;;87.13;30.13;;;;;;;4.08;100.00;101469.13;5087290;28;20099;-93
2024/03/05 08:31:10;;;;;;;85.38;31.05;;;;;;;4.10;100.00;101459.34;5086480;28;20123;-83
2024/03/05 08:33:35;;;;;;;94.53;33.22;;;;;;;4.12;100.00;101462.72;5069337;28;20083;-80
2024/03/05 08:36:00;;;;;;;100.47;32.78;;;;;;;4.13;100.00;101457.38;5072013;28;20028;-81
2024/03/05 08:38:27;;;;;;;96.28;32.72;;;;;;;4.14;100.00;101459.09;5090585;28;20078;-81
2024/03/05 08:40:52;;;;;;;101.40;33.45;;;;;;;4.17;100.00;101472.09;5090307;28;20028;-83
2024/03/05 08:43:18;;;;;;;102.80;33.28;;;;;;;4.21;100.00;101476.28;5071938;28;20028;-81
2024/03/05 08:45:43;;;;;;;107.45;32.83;;;;;;;4.24;100.00;101480.53;5090950;28;20525;-81
2024/03/05 08:48:08;;;;;;;102.25;33.40;;;;;;;4.28;100.00;101491.75;5089894;28;20059;-80
2024/03/05 08:50:36;;;;;;;95.95;31.83;;;;;;;4.30;100.00;101476.69;5090895;28;20119;-81
2024/03/05 08:53:04;;;;;;;101.85;34.03;;;;;;;4.33;100.00;101487.94;5090269;28;20059;-80
2024/03/05 08:55:29;;;;;;;102.97;34.38;;;;;;;4.37;100.00;101492.13;5090324;28;20096;-82
2024/03/05 08:57:55;;;;;;;97.90;33.97;;;;;;;4.40;100.00;101491.09;5090221;28;20031;-82
2024/03/05 09:00:20;;;;;;;94.15;33.80;;;;;;;4.43;100.00;101485.63;5090762;28;20051;-81
2024/03/05 09:02:46;;;;;;;101.65;33.42;;;;;;;4.46;100.00;101490.75;5090609;28;20104;-81
2024/03/05 09:05:12;;;;;;;97.40;31.42;;;;;;;4.48;100.00;101482.75;5090289;28;20036;-82
2024/03/05 09:07:42;;;;;;;92.15;32.45;;;;;;;4.51;100.00;101480.81;5090311;28;20502;-80
2024/03/05 09:10:09;;;;;;;93.70;32.28;;;;;;;4.55;100.00;101479.72;5089958;28;20051;-81
2024/03/05 09:12:35;;;;;;;90.70;31.88;;;;;;;4.61;100.00;101486.41;5090522;28;20100;-80
2024/03/05 09:15:00;;;;;;;99.65;33.13;;;;;;;4.63;100.00;101487.19;5089895;28;20390;-79
2024/03/05 09:17:26;;;;;;;104.75;34.78;;;;;;;4.69;100.00;101491.28;5071803;28;20024;-83
2024/03/05 09:19:52;;;;;;;103.18;34.92;;;;;;;4.75;100.00;101494.41;5089823;28;20332;-84
2024/03/05 09:22:19;;;;;;;95.25;32.33;;;;;;;4.83;100.00;101490.50;5089850;28;20027;-80
2024/03/05 09:24:44;;;;;;;102.80;33.92;;;;;;;4.91;100.00;101491.78;5089966;28;20035;-81
2024/03/05 09:27:10;;;;;;;93.80;33.47;;;;;;;5.00;100.00;101479.88;5089488;28;20127;-82
2024/03/05 09:29:36;;;;;;;101.93;33.55;;;;;;;5.11;100.00;101484.53;5090230;28;20027;-82
2024/03/05 09:32:01;;;;;;;99.47;34.60;;;;;;;5.25;100.00;101487.19;5089344;28;20475;-82
2024/03/05 09:34:27;;;;;;;106.30;37.45;;;;;;;5.41;100.00;101484.53;5089926;28;20476;-82
2024/03/05 09:36:52;;;;;;;102.18;37.03;;;;;;;5.58;100.00;101488.84;5071573;28;20090;-82
2024/03/05 09:39:20;;;;;;;93.97;34.45;;;;;;;5.68;100.00;101486.47;5070755;28;20052;-82
2024/03/05 09:41:46;;;;;;;95.13;34.45;;;;;;;5.75;100.00;101493.09;5072051;28;20055;-83
2024/03/05 09:44:12;;;;;;;93.25;34.88;;;;;;;5.83;100.00;101496.13;5088957;28;20522;-82
2024/03/05 09:46:39;;;;;;;90.28;33.25;;;;;;;5.93;100.00;101509.63;5070470;28;20032;-81
2024/03/05 09:49:11;;;;;;;82.57;33.17;;;;;;;6.04;100.00;101500.25;5054066;28;20030;-85
2024/03/05 09:51:39;;;;;;;82.53;33.50;;;;;;;6.11;100.00;101486.56;5089903;28;20034;-83
2024/03/05 09:54:14;;;;;;;85.13;33.90;;;;;;;6.17;100.00;101498.56;5071503;28;20122;-84
2024/03/05 09:56:42;;;;;;;82.70;33.65;;;;;;;6.17;100.00;101498.56;5089293;28;20051;-82
2024/03/05 09:59:14;;;;;;;87.53;33.75;;;;;;;6.14;100.00;101504.03;5070395;28;20091;-83
2024/03/05 10:01:45;;;;;;;82.75;34.33;;;;;;;6.11;100.00;101499.78;5089233;28;20111;-84
2024/03/05 10:04:15;;;;;;;80.03;32.00;;;;;;;6.18;100.00;101500.25;5071380;28;20044;-85
2024/03/05 10:06:45;;;;;;;72.75;31.45;;;;;;;6.22;100.00;101500.91;5070780;28;20059;-84
2024/03/05 10:09:12;;;;;;;75.03;32.42;;;;;;;6.22;100.00;101512.31;5069945;28;20062;-83
2024/03/05 10:11:38;;;;;;;77.80;32.38;;;;;;;6.27;100.00;101504.97;5088884;28;20464;-83
2024/03/05 10:14:08;;;;;;;86.15;33.08;;;;;;;6.36;100.00;101508.84;5070573;28;20089;-83
2024/03/05 10:16:34;;;;;;;76.93;30.58;;;;;;;6.38;100.00;101516.69;5089086;28;20062;-83
2024/03/05 10:19:12;;;;;;;78.65;32.60;;;;;;;6.41;100.00;101512.03;5088811;28;20040;-81
2024/03/05 10:21:37;;;;;;;68.07;32.45;;;;;;;6.39;100.00;101505.13;5088813;28;20058;-82
2024/03/05 10:24:04;;;;;;;73.05;32.22;;;;;;;6.40;100.00;101506.84;5088633;28;20063;-85
2024/03/05 10:26:31;;;;;;;87.25;34.08;;;;;;;6.52;100.00;101511.34;5069797;28;20062;-83
2024/03/05 10:28:59;;;;;;;72.15;32.28;;;;;;;6.67;100.00;101507.75;5070937;28;20036;-84
2024/03/05 10:31:26;;;;;;;69.70;32.45;;;;;;;6.77;100.00;101510.66;5087760;28;20050;-83
2024/03/05 10:33:53;;;;;;;77.43;35.05;;;;;;;6.93;100.00;101514.97;5088523;28;20110;-82
2024/03/05 10:36:32;;;;;;;78.03;35.40;;;;;;;7.07;100.00;101518.41;5088097;28;20100;-83
2024/03/05 10:38:58;;;;;;;67.43;34.35;;;;;;;7.23;100.00;101507.69;5088596;28;20152;-82
2024/03/05 10:41:27;;;;;;;66.80;33.03;;;;;;;7.38;100.00;101519.03;5069747;28;20143;-83
2024/03/05 10:44:00;;;;;;;62.50;32.47;;;;;;;7.44;100.00;101507.22;5088161;28;20058;-83
2024/03/05 10:46:29;;;;;;;62.42;31.05;;;;;;;7.54;100.00;101513.59;5068567;28;20020;-84
2024/03/05 10:48:56;;;;;;;63.83;31.75;;;;;;;7.66;100.00;101505.75;5088388;28;20032;-82
2024/03/05 10:51:26;;;;;;;62.83;32.20;;;;;;;7.86;100.00;101507.06;5090132;28;20074;-82
2024/03/05 10:53:52;;;;;;;55.25;30.27;;;;;;;7.83;100.00;101510.75;5090894;28;20028;-83
2024/03/05 10:56:18;;;;;;;56.13;31.00;;;;;;;7.93;100.00;101508.34;5072516;28;20101;-84
2024/03/05 11:01:21;;;;;;;57.05;29.95;;;;;;;8.01;100.00;101513.09;5091661;28;20130;-82
2024/03/05 11:03:49;;;;;;;52.92;28.48;;;;;;;8.04;100.00;101511.09;5091120;28;20028;-80
2024/03/05 11:06:17;;;;;;;49.25;28.88;;;;;;;8.06;100.00;101519.78;5072113;28;20119;-82
2024/03/05 11:08:43;;;;;;;47.08;28.10;;;;;;;8.08;100.00;101511.72;5090490;28;20056;-81
2024/03/05 11:11:18;;;;;;;48.97;27.75;;;;;;;8.12;100.00;101508.75;5090769;28;20119;-82
2024/03/05 11:13:46;;;;;;;45.30;27.30;;;;;;;8.25;100.00;101515.84;5072509;28;20016;-81